Time,TemperatureF,DewpointF,PressureIn,WindDirection,WindDirectionDegrees,WindSpeedMPH,WindSpeedGustMPH,Humidity,HourlyPrecipIn,Conditions,Clouds,dailyrainin,SoftwareType,DateUTC
2013-01-09 00:04:00,37.0,32.0,29.96,NNW,336,1.0,2.0,82,0.00,,,0.08,Wunderground v.1.15,2013-01-09 06:04:00,
2013-01-09 00:10:00,37.0,32.0,29.96,NNW,336,3.0,3.0,82,0.00,,,0.08,Wunderground v.1.15,2013-01-09 06:10:00,
2013-01-09 00:16:00,36.9,31.9,29.96,NNW,343,5.0,5.0,82,0.00,,,0.08,Wunderground v.1.15,2013-01-09 06:16:00,
2013-01-09 00:22:00,37.0,32.0,29.95,NW,323,4.0,-999.0,82,-99.99,,,0.09,weatherlink.com 1.10,2013-01-09 06:22:00,
2013-01-09 00:28:00,37.0,32.0,29.96,NW,320,1.0,4.0,82,0.00,,,0.09,Wunderground v.1.15,2013-01-09 06:28:00,
2013-01-09 00:33:00,36.9,31.9,29.96,NNW,343,1.0,2.0,82,0.00,,,0.09,Wunderground v.1.15,2013-01-09 06:33:00,
2013-01-09 00:39:00,36.9,31.9,29.96,NNW,347,3.0,3.0,82,0.00,,,0.09,Wunderground v.1.15,2013-01-09 06:39:00,
2013-01-09 00:45:00,36.9,31.9,29.96,NNW,334,0.0,3.0,82,0.00,,,0.09,Wunderground v.1.15,2013-01-09 06:45:00,
2013-01-09 00:51:00,36.8,31.8,29.95,NNW,335,0.0,2.0,82,0.00,,,0.09,Wunderground v.1.15,2013-01-09 06:51:00,
2013-01-09 00:56:00,36.7,32.0,29.95,NNW,334,0.0,2.0,83,0.00,,,0.09,Wunderground v.1.15,2013-01-09 06:56:00,
2013-01-09 01:01:00,36.7,32.0,29.95,North,10,1.0,1.0,83,0.00,,,0.00,Wunderground v.1.15,2013-01-09 07:01:00,
2013-01-09 01:07:00,36.8,32.0,29.95,NNW,337,2.0,-999.0,82,-99.99,,,0.01,weatherlink.com 1.10,2013-01-09 07:07:00,
2013-01-09 01:13:00,37.1,32.1,29.96,NNW,330,3.0,6.0,82,0.00,,,0.01,Wunderground v.1.15,2013-01-09 07:13:00,
2013-01-09 01:18:00,37.3,32.0,29.97,SE,127,2.0,6.0,81,0.00,,,0.01,Wunderground v.1.15,2013-01-09 07:18:00,
2013-01-09 01:24:00,37.4,32.1,29.96,NNW,334,3.0,3.0,81,0.00,,,0.01,Wunderground v.1.15,2013-01-09 07:24:00,
2013-01-09 01:30:00,37.4,32.1,29.97,NNW,334,2.0,2.0,81,0.00,,,0.01,Wunderground v.1.15,2013-01-09 07:30:00,
2013-01-09 01:36:00,37.4,32.1,29.97,ESE,103,2.0,2.0,81,0.00,,,0.01,Wunderground v.1.15,2013-01-09 07:36:00,
2013-01-09 01:42:00,37.2,31.9,29.98,North,351,1.0,2.0,81,0.00,,,0.01,Wunderground v.1.15,2013-01-09 07:42:00,
2013-01-09 01:48:00,37.0,32.0,29.98,NE,35,1.0,2.0,82,0.00,,,0.02,Wunderground v.1.15,2013-01-09 07:48:00,
2013-01-09 01:54:00,37.0,32.0,29.98,WSW,239,2.0,2.0,82,0.00,,,0.02,Wunderground v.1.15,2013-01-09 07:54:00,
2013-01-09 01:59:00,37.0,32.0,29.98,West,268,1.0,4.0,82,0.00,,,0.02,Wunderground v.1.15,2013-01-09 07:59:00,
2013-01-09 02:04:00,37.1,32.1,29.98,NNW,329,3.0,6.0,82,0.00,,,0.02,Wunderground v.1.15,2013-01-09 08:04:00,
2013-01-09 02:09:00,37.1,31.8,29.99,NNW,335,2.0,6.0,81,0.00,,,0.02,Wunderground v.1.15,2013-01-09 08:09:00,
2013-01-09 02:14:00,37.0,31.7,29.99,ESE,121,1.0,7.0,81,0.00,,,0.02,Wunderground v.1.15,2013-01-09 08:14:00,
2013-01-09 02:19:00,36.8,31.8,29.99,East,87,2.0,7.0,82,0.00,,,0.02,Wunderground v.1.15,2013-01-09 08:19:00,
2013-01-09 02:24:00,36.6,31.6,29.99,NNW,340,3.0,10.0,82,0.00,,,0.02,Wunderground v.1.15,2013-01-09 08:24:00,
2013-01-09 02:29:00,36.4,31.4,30.00,NNW,333,3.0,10.0,82,0.00,,,0.02,Wunderground v.1.15,2013-01-09 08:29:00,
2013-01-09 02:34:00,36.2,31.2,30.00,North,7,1.0,7.0,82,0.00,,,0.02,Wunderground v.1.15,2013-01-09 08:34:00,
2013-01-09 02:39:00,36.0,31.0,30.00,NNW,337,5.0,7.0,82,0.00,,,0.02,Wunderground v.1.15,2013-01-09 08:39:00,
2013-01-09 02:44:00,36.0,31.3,30.00,East,99,0.0,11.0,83,0.00,,,0.02,Wunderground v.1.15,2013-01-09 08:44:00,
2013-01-09 02:49:00,35.8,31.1,30.01,NNW,334,0.0,11.0,83,0.00,,,0.02,Wunderground v.1.15,2013-01-09 08:49:00,
2013-01-09 02:54:00,35.6,30.9,30.01,ESE,120,4.0,4.0,83,0.00,,,0.03,Wunderground v.1.15,2013-01-09 08:54:00,
2013-01-09 02:59:00,35.4,30.8,30.01,ESE,103,4.0,6.0,83,0.00,,,0.03,Wunderground v.1.15,2013-01-09 08:59:00,
2013-01-09 03:04:00,35.3,30.9,30.01,ESE,118,3.0,5.0,84,0.00,,,0.03,Wunderground v.1.15,2013-01-09 09:04:00,
2013-01-09 03:09:00,35.0,30.7,30.01,SSE,147,0.0,5.0,84,0.00,,,0.03,Wunderground v.1.15,2013-01-09 09:09:00,
2013-01-09 03:14:00,34.8,30.5,30.02,NNW,334,1.0,4.0,84,0.00,,,0.03,Wunderground v.1.15,2013-01-09 09:14:00,
2013-01-09 03:19:00,34.6,30.3,30.03,East,97,2.0,5.0,84,0.00,,,0.03,Wunderground v.1.15,2013-01-09 09:19:00,
2013-01-09 03:26:00,34.6,30.0,30.03,North,1,2.0,-999.0,84,-99.99,,,0.03,weatherlink.com 1.10,2013-01-09 09:26:00,
2013-01-09 03:41:00,34.0,30.0,30.03,SE,143,1.0,-999.0,85,-99.99,,,0.03,weatherlink.com 1.10,2013-01-09 09:41:00,
2013-01-09 03:56:00,33.4,30.0,30.03,NNW,343,2.0,-999.0,86,-99.99,,,0.03,weatherlink.com 1.10,2013-01-09 09:56:00,
2013-01-09 04:11:00,32.9,30.0,30.05,North,351,2.0,-999.0,87,-99.99,,,0.03,weatherlink.com 1.10,2013-01-09 10:11:00,
2013-01-09 04:26:00,32.8,29.0,30.06,North,3,1.0,-999.0,87,-99.99,,,0.03,weatherlink.com 1.10,2013-01-09 10:26:00,
2013-01-09 04:41:00,32.8,29.0,30.07,South,176,2.0,-999.0,86,-99.99,,,0.03,weatherlink.com 1.10,2013-01-09 10:41:00,
2013-01-09 04:56:00,32.4,29.0,30.08,SSE,156,2.0,-999.0,86,-99.99,,,0.03,weatherlink.com 1.10,2013-01-09 10:56:00,
2013-01-09 05:11:00,32.2,29.0,30.08,North,353,2.0,-999.0,86,-99.99,,,0.03,weatherlink.com 1.10,2013-01-09 11:11:00,
2013-01-09 05:26:00,32.1,28.0,30.08,NNW,337,0.0,-999.0,86,-99.99,,,0.03,weatherlink.com 1.10,2013-01-09 11:26:00,
2013-01-09 05:41:00,32.1,28.0,30.09,East,91,1.0,-999.0,86,-99.99,,,0.03,weatherlink.com 1.10,2013-01-09 11:41:00,
2013-01-09 05:56:00,32.0,28.0,30.09,NNW,338,3.0,-999.0,86,-99.99,,,0.03,weatherlink.com 1.10,2013-01-09 11:56:00,
2013-01-09 06:11:00,32.1,28.0,30.10,NNW,339,1.0,-999.0,86,-99.99,,,0.03,weatherlink.com 1.10,2013-01-09 12:11:00,
2013-01-09 06:26:00,32.2,28.0,30.11,SE,130,3.0,-999.0,84,-99.99,,,0.03,weatherlink.com 1.10,2013-01-09 12:26:00,
2013-01-09 06:41:00,31.9,28.0,30.12,SSE,148,1.0,-999.0,84,-99.99,,,0.03,weatherlink.com 1.10,2013-01-09 12:41:00,
2013-01-09 06:56:00,31.6,27.0,30.13,ESE,103,2.0,-999.0,84,-99.99,,,0.03,weatherlink.com 1.10,2013-01-09 12:56:00,
2013-01-09 07:11:00,31.3,27.0,30.13,SE,145,1.0,-999.0,85,-99.99,,,0.03,weatherlink.com 1.10,2013-01-09 13:11:00,
2013-01-09 07:26:00,31.5,27.0,30.13,NNW,347,0.0,-999.0,84,-99.99,,,0.03,weatherlink.com 1.10,2013-01-09 13:26:00,
2013-01-09 07:42:00,31.8,28.0,30.14,West,278,0.0,-999.0,84,-99.99,,,0.03,weatherlink.com 1.10,2013-01-09 13:42:00,
2013-01-09 07:57:00,31.9,28.0,30.14,NW,326,0.0,-999.0,84,-99.99,,,0.03,weatherlink.com 1.10,2013-01-09 13:57:00,
2013-01-09 08:12:00,32.6,28.0,30.14,NNW,342,1.0,-999.0,83,-99.99,,,0.03,weatherlink.com 1.10,2013-01-09 14:12:00,
2013-01-09 08:27:00,33.9,28.0,30.15,East,101,4.0,-999.0,80,-99.99,,,0.03,weatherlink.com 1.10,2013-01-09 14:27:00,
2013-01-09 08:42:00,34.4,29.0,30.17,NNW,338,4.0,-999.0,79,-99.99,,,0.03,weatherlink.com 1.10,2013-01-09 14:42:00,
2013-01-09 08:57:00,34.0,28.0,30.18,SE,131,2.0,-999.0,80,-99.99,,,0.03,weatherlink.com 1.10,2013-01-09 14:57:00,
2013-01-09 09:12:00,34.5,29.0,30.17,ESE,118,0.0,-999.0,79,-99.99,,,0.03,weatherlink.com 1.10,2013-01-09 15:12:00,
2013-01-09 09:27:00,35.3,28.0,30.18,SSE,147,2.0,-999.0,75,-99.99,,,0.03,weatherlink.com 1.10,2013-01-09 15:27:00,
2013-01-09 09:42:00,35.9,28.0,30.19,SSE,147,10.0,-999.0,73,-99.99,,,0.03,weatherlink.com 1.10,2013-01-09 15:42:00,
2013-01-09 09:57:00,36.6,28.0,30.20,East,86,4.0,-999.0,71,-99.99,,,0.03,weatherlink.com 1.10,2013-01-09 15:57:00,
2013-01-09 10:12:00,36.9,28.0,30.20,NNW,331,5.0,-999.0,69,-99.99,,,0.03,weatherlink.com 1.10,2013-01-09 16:12:00,
2013-01-09 10:27:00,37.2,27.0,30.20,East,96,2.0,-999.0,68,-99.99,,,0.03,weatherlink.com 1.10,2013-01-09 16:27:00,
2013-01-09 10:42:00,37.5,28.0,30.20,SE,143,4.0,-999.0,68,-99.99,,,0.03,weatherlink.com 1.10,2013-01-09 16:42:00,
2013-01-09 10:57:00,37.9,27.0,30.20,SSE,156,3.0,-999.0,65,-99.99,,,0.03,weatherlink.com 1.10,2013-01-09 16:57:00,
2013-01-09 11:12:00,38.3,27.0,30.20,SE,130,0.0,-999.0,64,-99.99,,,0.03,weatherlink.com 1.10,2013-01-09 17:12:00,
2013-01-09 11:27:00,38.6,27.0,30.21,ESE,123,6.0,-999.0,63,-99.99,,,0.03,weatherlink.com 1.10,2013-01-09 17:27:00,
2013-01-09 11:42:00,38.9,27.0,30.22,NNW,341,1.0,-999.0,62,-99.99,,,0.03,weatherlink.com 1.10,2013-01-09 17:42:00,
2013-01-09 11:57:00,39.5,27.0,30.23,SE,127,5.0,-999.0,61,-99.99,,,0.03,weatherlink.com 1.10,2013-01-09 17:57:00,
2013-01-09 12:12:00,40.0,26.0,30.24,North,359,7.0,-999.0,58,-99.99,,,0.03,weatherlink.com 1.10,2013-01-09 18:12:00,
2013-01-09 12:27:00,40.7,26.0,30.26,NW,322,3.0,-999.0,57,-99.99,,,0.03,weatherlink.com 1.10,2013-01-09 18:27:00,
2013-01-09 12:42:00,40.1,28.0,30.25,NNW,345,6.0,-999.0,62,-99.99,,,0.04,weatherlink.com 1.10,2013-01-09 18:42:00,
2013-01-09 12:57:00,40.0,27.0,30.26,East,91,2.0,-999.0,61,-99.99,,,0.04,weatherlink.com 1.10,2013-01-09 18:57:00,
2013-01-09 13:12:00,39.8,28.0,30.28,NNW,343,4.0,-999.0,62,-99.99,,,0.05,weatherlink.com 1.10,2013-01-09 19:12:00,
2013-01-09 13:27:00,39.5,27.0,30.29,SE,142,2.0,-999.0,62,-99.99,,,0.06,weatherlink.com 1.10,2013-01-09 19:27:00,
2013-01-09 13:42:00,39.3,27.0,30.30,WSW,239,5.0,-999.0,62,-99.99,,,0.07,weatherlink.com 1.10,2013-01-09 19:42:00,
2013-01-09 13:57:00,39.3,27.7,30.31,SE,140,3.0,5.0,63,0.06,,,0.09,Wunderground v.1.15,2013-01-09 19:57:00,
2013-01-09 14:02:00,39.3,27.4,30.31,NNW,332,9.0,9.0,62,0.17,,,0.10,Wunderground v.1.15,2013-01-09 20:02:00,
2013-01-09 14:07:00,39.3,27.7,30.31,NNW,341,11.0,12.0,63,0.12,,,0.11,Wunderground v.1.15,2013-01-09 20:07:00,
2013-01-09 14:12:00,39.1,27.6,30.31,NNW,335,5.0,11.0,63,0.11,,,0.12,Wunderground v.1.15,2013-01-09 20:12:00,
2013-01-09 14:17:00,39.0,27.8,30.31,NW,313,2.0,11.0,64,0.06,,,0.12,Wunderground v.1.15,2013-01-09 20:17:00,
2013-01-09 14:22:00,39.1,27.9,30.32,SSE,156,2.0,10.0,64,0.04,,,0.12,Wunderground v.1.15,2013-01-09 20:22:00,
2013-01-09 14:27:00,39.0,27.8,30.32,SSE,156,2.0,11.0,64,0.04,,,0.13,Wunderground v.1.15,2013-01-09 20:27:00,
2013-01-09 14:32:00,39.1,27.9,30.33,NNW,331,2.0,10.0,64,0.04,,,0.13,Wunderground v.1.15,2013-01-09 20:32:00,
2013-01-09 14:37:00,39.1,27.9,30.33,SE,134,7.0,12.0,64,0.04,,,0.13,Wunderground v.1.15,2013-01-09 20:37:00,
2013-01-09 14:42:00,39.0,27.8,30.33,NNW,338,1.0,7.0,64,0.00,,,0.13,Wunderground v.1.15,2013-01-09 20:42:00,
2013-01-09 14:47:00,38.9,27.8,30.33,NNW,348,2.0,7.0,64,0.00,,,0.13,Wunderground v.1.15,2013-01-09 20:47:00,
2013-01-09 14:52:00,38.8,27.7,30.34,SW,230,0.0,7.0,64,0.00,,,0.14,Wunderground v.1.15,2013-01-09 20:52:00,
2013-01-09 14:57:00,38.7,27.9,30.35,North,353,2.0,8.0,65,0.00,,,0.14,Wunderground v.1.15,2013-01-09 20:57:00,
2013-01-09 15:02:00,38.6,27.8,30.36,SSW,205,4.0,10.0,65,0.00,,,0.14,Wunderground v.1.15,2013-01-09 21:02:00,
2013-01-09 15:07:00,38.4,27.7,30.36,NE,37,0.0,10.0,65,0.00,,,0.14,Wunderground v.1.15,2013-01-09 21:07:00,
2013-01-09 15:12:00,38.3,27.9,30.37,East,80,1.0,5.0,66,0.00,,,0.14,Wunderground v.1.15,2013-01-09 21:12:00,
2013-01-09 15:17:00,38.2,27.8,30.37,NE,47,1.0,10.0,66,0.00,,,0.14,Wunderground v.1.15,2013-01-09 21:17:00,
2013-01-09 15:22:00,38.2,27.8,30.36,ESE,121,2.0,5.0,66,0.00,,,0.14,Wunderground v.1.15,2013-01-09 21:22:00,
2013-01-09 15:27:00,38.3,27.9,30.36,North,6,1.0,6.0,66,0.00,,,0.14,Wunderground v.1.15,2013-01-09 21:27:00,
2013-01-09 15:32:00,38.3,27.9,30.36,ESE,112,1.0,4.0,66,0.00,,,0.14,Wunderground v.1.15,2013-01-09 21:32:00,
2013-01-09 15:37:00,38.2,27.8,30.36,SE,129,2.0,4.0,66,0.00,,,0.14,Wunderground v.1.15,2013-01-09 21:37:00,
2013-01-09 15:42:00,38.1,27.7,30.36,ESE,107,0.0,4.0,66,0.00,,,0.14,Wunderground v.1.15,2013-01-09 21:42:00,
2013-01-09 15:47:00,38.1,27.4,30.36,East,84,3.0,6.0,65,0.00,,,0.14,Wunderground v.1.15,2013-01-09 21:47:00,
2013-01-09 15:52:00,38.1,27.0,30.36,SE,128,3.0,5.0,64,0.00,,,0.14,Wunderground v.1.15,2013-01-09 21:52:00,
2013-01-09 15:57:00,38.2,26.3,30.36,ESE,123,3.0,9.0,62,0.00,,,0.14,Wunderground v.1.15,2013-01-09 21:57:00,
2013-01-09 16:02:00,38.2,26.7,30.36,ESE,119,2.0,8.0,63,0.00,,,0.14,Wunderground v.1.15,2013-01-09 22:02:00,
2013-01-09 16:07:00,38.0,26.5,30.36,ESE,116,5.0,8.0,63,0.00,,,0.15,Wunderground v.1.15,2013-01-09 22:07:00,
2013-01-09 16:12:00,37.8,26.3,30.37,ESE,111,2.0,4.0,63,0.00,,,0.15,Wunderground v.1.15,2013-01-09 22:12:00,
2013-01-09 16:17:00,37.5,26.4,30.38,SE,134,5.0,5.0,64,0.00,,,0.15,Wunderground v.1.15,2013-01-09 22:17:00,
2013-01-09 16:22:00,37.3,26.6,30.39,ESE,122,2.0,3.0,65,0.00,,,0.15,Wunderground v.1.15,2013-01-09 22:22:00,
2013-01-09 16:27:00,37.2,26.5,30.39,ESE,106,5.0,7.0,65,0.00,,,0.15,Wunderground v.1.15,2013-01-09 22:27:00,
2013-01-09 16:32:00,37.2,26.5,30.39,ESE,109,1.0,4.0,65,0.00,,,0.15,Wunderground v.1.15,2013-01-09 22:32:00,
2013-01-09 16:37:00,37.0,26.3,30.39,ESE,105,1.0,6.0,65,0.00,,,0.15,Wunderground v.1.15,2013-01-09 22:37:00,
2013-01-09 16:42:00,36.9,26.6,30.39,East,91,2.0,3.0,66,0.00,,,0.15,Wunderground v.1.15,2013-01-09 22:42:00,
2013-01-09 16:47:00,36.8,26.1,30.39,ESE,114,5.0,12.0,65,0.00,,,0.15,Wunderground v.1.15,2013-01-09 22:47:00,
2013-01-09 16:52:00,36.8,26.1,30.40,ESE,122,3.0,5.0,65,0.00,,,0.15,Wunderground v.1.15,2013-01-09 22:52:00,
2013-01-09 16:57:00,36.9,26.2,30.39,SE,131,1.0,6.0,65,0.00,,,0.15,Wunderground v.1.15,2013-01-09 22:57:00,
2013-01-09 17:02:00,36.6,25.9,30.39,East,90,4.0,6.0,65,0.00,,,0.15,Wunderground v.1.15,2013-01-09 23:02:00,
2013-01-09 17:07:00,36.5,26.2,30.39,ESE,114,3.0,6.0,66,0.00,,,0.15,Wunderground v.1.15,2013-01-09 23:07:00,
2013-01-09 17:12:00,36.4,26.1,30.39,ESE,116,2.0,3.0,66,0.00,,,0.15,Wunderground v.1.15,2013-01-09 23:12:00,
2013-01-09 17:17:00,36.1,26.2,30.40,ESE,103,2.0,3.0,67,0.00,,,0.15,Wunderground v.1.15,2013-01-09 23:17:00,
2013-01-09 17:22:00,35.9,26.0,30.39,SE,130,3.0,4.0,67,0.00,,,0.15,Wunderground v.1.15,2013-01-09 23:22:00,
2013-01-09 17:27:00,35.8,25.9,30.40,SE,145,2.0,5.0,67,0.00,,,0.15,Wunderground v.1.15,2013-01-09 23:27:00,
2013-01-09 17:32:00,35.7,25.8,30.40,East,97,0.0,3.0,67,0.00,,,0.15,Wunderground v.1.15,2013-01-09 23:32:00,
2013-01-09 17:37:00,35.6,25.7,30.40,SE,131,0.0,4.0,67,0.00,,,0.15,Wunderground v.1.15,2013-01-09 23:37:00,
2013-01-09 17:42:00,35.5,26.0,30.40,ESE,114,2.0,2.0,68,0.00,,,0.15,Wunderground v.1.15,2013-01-09 23:42:00,
2013-01-09 17:47:00,35.3,25.8,30.41,East,91,0.0,2.0,68,0.00,,,0.15,Wunderground v.1.15,2013-01-09 23:47:00,
2013-01-09 17:52:00,35.1,25.9,30.41,ESE,110,0.0,1.0,69,0.00,,,0.15,Wunderground v.1.15,2013-01-09 23:52:00,
2013-01-09 17:57:00,34.8,25.7,30.41,East,91,0.0,2.0,69,0.00,,,0.15,Wunderground v.1.15,2013-01-09 23:57:00,
2013-01-09 18:02:00,34.6,25.5,30.41,East,91,0.0,0.0,69,0.00,,,0.15,Wunderground v.1.15,2013-01-10 00:02:00,
2013-01-09 18:07:00,34.5,25.7,30.42,East,91,0.0,2.0,70,0.00,,,0.15,Wunderground v.1.15,2013-01-10 00:07:00,
2013-01-09 18:12:00,34.5,25.7,30.41,East,91,0.0,2.0,70,0.00,,,0.15,Wunderground v.1.15,2013-01-10 00:12:00,
2013-01-09 18:17:00,34.4,26.0,30.41,East,96,0.0,2.0,71,0.00,,,0.15,Wunderground v.1.15,2013-01-10 00:17:00,
2013-01-09 18:22:00,34.3,25.9,30.41,East,96,0.0,1.0,71,0.00,,,0.15,Wunderground v.1.15,2013-01-10 00:22:00,
2013-01-09 18:27:00,34.1,26.0,30.42,East,96,0.0,1.0,72,0.00,,,0.15,Wunderground v.1.15,2013-01-10 00:27:00,
2013-01-09 18:32:00,34.0,25.9,30.42,East,96,0.0,0.0,72,0.00,,,0.15,Wunderground v.1.15,2013-01-10 00:32:00,
2013-01-09 18:37:00,33.8,26.1,30.42,East,96,0.0,0.0,73,0.00,,,0.15,Wunderground v.1.15,2013-01-10 00:37:00,
2013-01-09 18:42:00,33.5,25.8,30.43,East,96,0.0,0.0,73,0.00,,,0.15,Wunderground v.1.15,2013-01-10 00:42:00,
2013-01-09 18:47:00,33.2,25.8,30.43,East,96,0.0,0.0,74,0.00,,,0.15,Wunderground v.1.15,2013-01-10 00:47:00,
2013-01-09 18:52:00,32.9,25.8,30.44,East,96,0.0,0.0,75,0.00,,,0.15,Wunderground v.1.15,2013-01-10 00:52:00,
2013-01-09 18:57:00,32.6,25.6,30.44,East,96,0.0,0.0,75,0.00,,,0.15,Wunderground v.1.15,2013-01-10 00:57:00,
2013-01-09 19:02:00,32.3,25.6,30.44,East,96,0.0,0.0,76,0.00,,,0.15,Wunderground v.1.15,2013-01-10 01:02:00,
2013-01-09 19:07:00,32.0,25.3,30.44,East,96,0.0,0.0,76,0.00,,,0.15,Wunderground v.1.15,2013-01-10 01:07:00,
2013-01-09 19:12:00,31.7,25.3,30.45,East,96,0.0,0.0,77,0.00,,,0.15,Wunderground v.1.15,2013-01-10 01:12:00,
2013-01-09 19:17:00,31.3,25.2,30.45,East,96,0.0,0.0,78,0.00,,,0.15,Wunderground v.1.15,2013-01-10 01:17:00,
2013-01-09 19:22:00,31.0,24.9,30.45,East,96,0.0,0.0,78,0.00,,,0.15,Wunderground v.1.15,2013-01-10 01:22:00,
2013-01-09 19:27:00,30.8,25.1,30.45,East,96,0.0,0.0,79,0.00,,,0.15,Wunderground v.1.15,2013-01-10 01:27:00,
2013-01-09 19:32:00,30.6,24.9,30.46,East,96,0.0,0.0,79,0.00,,,0.15,Wunderground v.1.15,2013-01-10 01:32:00,
2013-01-09 19:37:00,30.4,25.0,30.46,East,96,0.0,0.0,80,0.00,,,0.15,Wunderground v.1.15,2013-01-10 01:37:00,
2013-01-09 19:42:00,30.2,24.8,30.45,East,96,0.0,0.0,80,0.00,,,0.15,Wunderground v.1.15,2013-01-10 01:42:00,
2013-01-09 19:47:00,30.1,25.0,30.46,East,96,0.0,0.0,81,0.00,,,0.15,Wunderground v.1.15,2013-01-10 01:47:00,
2013-01-09 19:52:00,29.9,25.1,30.46,East,96,0.0,0.0,82,0.00,,,0.15,Wunderground v.1.15,2013-01-10 01:52:00,
2013-01-09 19:57:00,29.7,24.9,30.45,East,96,0.0,0.0,82,0.00,,,0.15,Wunderground v.1.15,2013-01-10 01:57:00,
2013-01-09 20:02:00,29.6,24.8,30.45,East,96,0.0,0.0,82,0.00,,,0.15,Wunderground v.1.15,2013-01-10 02:02:00,
2013-01-09 20:07:00,29.5,24.7,30.46,East,96,0.0,0.0,82,0.00,,,0.15,Wunderground v.1.15,2013-01-10 02:07:00,
2013-01-09 20:12:00,29.4,24.9,30.46,East,96,0.0,0.0,83,0.00,,,0.15,Wunderground v.1.15,2013-01-10 02:12:00,
2013-01-09 20:17:00,29.3,24.8,30.46,East,96,0.0,0.0,83,0.00,,,0.15,Wunderground v.1.15,2013-01-10 02:17:00,
2013-01-09 20:22:00,29.4,24.9,30.46,East,96,0.0,0.0,83,0.00,,,0.15,Wunderground v.1.15,2013-01-10 02:22:00,
2013-01-09 20:27:00,29.2,24.7,30.46,East,96,0.0,0.0,83,0.00,,,0.15,Wunderground v.1.15,2013-01-10 02:27:00,
2013-01-09 20:32:00,29.0,24.8,30.46,East,96,0.0,0.0,84,0.00,,,0.15,Wunderground v.1.15,2013-01-10 02:32:00,
2013-01-09 20:37:00,29.0,24.5,30.46,East,96,0.0,0.0,83,0.00,,,0.15,Wunderground v.1.15,2013-01-10 02:37:00,
2013-01-09 20:42:00,29.0,24.8,30.46,East,96,0.0,0.0,84,0.00,,,0.15,Wunderground v.1.15,2013-01-10 02:42:00,
2013-01-09 20:47:00,29.0,24.8,30.46,East,96,0.0,0.0,84,0.00,,,0.15,Wunderground v.1.15,2013-01-10 02:47:00,
2013-01-09 20:52:00,28.9,24.4,30.45,East,96,0.0,0.0,83,0.00,,,0.15,Wunderground v.1.15,2013-01-10 02:52:00,
2013-01-09 20:57:00,28.6,24.4,30.45,East,96,0.0,0.0,84,0.00,,,0.15,Wunderground v.1.15,2013-01-10 02:57:00,
2013-01-09 21:02:00,28.4,24.2,30.45,East,96,0.0,0.0,84,0.00,,,0.15,Wunderground v.1.15,2013-01-10 03:02:00,
2013-01-09 21:07:00,28.1,23.9,30.45,East,96,0.0,0.0,84,0.00,,,0.15,Wunderground v.1.15,2013-01-10 03:07:00,
2013-01-09 21:12:00,27.9,23.7,30.45,East,97,0.0,0.0,84,0.00,,,0.15,Wunderground v.1.15,2013-01-10 03:12:00,
2013-01-09 21:17:00,27.8,23.9,30.45,East,97,0.0,0.0,85,0.00,,,0.15,Wunderground v.1.15,2013-01-10 03:17:00,
2013-01-09 21:22:00,27.8,23.9,30.45,East,97,0.0,0.0,85,0.00,,,0.15,Wunderground v.1.15,2013-01-10 03:22:00,
2013-01-09 21:27:00,27.9,24.0,30.44,East,97,0.0,0.0,85,0.00,,,0.15,Wunderground v.1.15,2013-01-10 03:27:00,
2013-01-09 21:32:00,27.9,23.7,30.44,East,97,0.0,0.0,84,0.00,,,0.15,Wunderground v.1.15,2013-01-10 03:32:00,
2013-01-09 21:37:00,28.0,24.1,30.44,East,97,0.0,0.0,85,0.00,,,0.15,Wunderground v.1.15,2013-01-10 03:37:00,
2013-01-09 21:42:00,27.9,23.7,30.44,East,97,0.0,0.0,84,0.00,,,0.15,Wunderground v.1.15,2013-01-10 03:42:00,
2013-01-09 21:47:00,27.8,23.6,30.44,East,97,0.0,0.0,84,0.00,,,0.15,Wunderground v.1.15,2013-01-10 03:47:00,
2013-01-09 21:52:00,27.7,23.8,30.44,East,97,0.0,0.0,85,0.00,,,0.15,Wunderground v.1.15,2013-01-10 03:52:00,
2013-01-09 21:57:00,27.7,24.1,30.44,East,97,0.0,0.0,86,0.00,,,0.15,Wunderground v.1.15,2013-01-10 03:57:00,
2013-01-09 22:02:00,27.5,23.6,30.44,East,97,0.0,0.0,85,0.00,,,0.15,Wunderground v.1.15,2013-01-10 04:02:00,
2013-01-09 22:07:00,27.2,23.3,30.43,East,97,0.0,0.0,85,0.00,,,0.15,Wunderground v.1.15,2013-01-10 04:07:00,
2013-01-09 22:12:00,27.0,23.1,30.43,East,97,0.0,0.0,85,0.00,,,0.15,Wunderground v.1.15,2013-01-10 04:12:00,
2013-01-09 22:17:00,26.9,23.3,30.43,East,97,0.0,0.0,86,0.00,,,0.15,Wunderground v.1.15,2013-01-10 04:17:00,
2013-01-09 22:22:00,26.7,22.8,30.43,East,97,0.0,0.0,85,0.00,,,0.15,Wunderground v.1.15,2013-01-10 04:22:00,
2013-01-09 22:27:00,26.5,22.9,30.43,East,97,0.0,0.0,86,0.00,,,0.15,Wunderground v.1.15,2013-01-10 04:27:00,
2013-01-09 22:32:00,26.5,22.9,30.43,East,97,0.0,0.0,86,0.00,,,0.15,Wunderground v.1.15,2013-01-10 04:32:00,
2013-01-09 22:37:00,26.4,22.8,30.43,East,97,0.0,0.0,86,0.00,,,0.15,Wunderground v.1.15,2013-01-10 04:37:00,
2013-01-09 22:42:00,26.2,22.6,30.44,East,97,0.0,0.0,86,0.00,,,0.15,Wunderground v.1.15,2013-01-10 04:42:00,
2013-01-09 22:48:00,26.0,22.4,30.44,East,97,0.0,0.0,86,0.00,,,0.15,Wunderground v.1.15,2013-01-10 04:48:00,
2013-01-09 22:53:00,25.9,22.6,30.44,East,97,0.0,0.0,87,0.00,,,0.15,Wunderground v.1.15,2013-01-10 04:53:00,
2013-01-09 22:58:00,25.8,22.5,30.45,East,97,0.0,0.0,87,0.00,,,0.15,Wunderground v.1.15,2013-01-10 04:58:00,
2013-01-09 23:00:00,25.8,22.5,30.45,East,97,0.0,0.0,87,0.00,,,0.15,Wunderground v.1.15,2013-01-10 05:00:00,
2013-01-09 23:02:00,25.8,22.5,30.45,East,97,0.0,0.0,87,0.00,,,0.15,Wunderground v.1.15,2013-01-10 05:02:00,
2013-01-09 23:03:00,25.8,22.5,30.45,East,97,0.0,0.0,87,0.00,,,0.15,Wunderground v.1.15,2013-01-10 05:03:00,
2013-01-09 23:08:00,25.9,22.6,30.46,East,97,0.0,0.0,87,0.00,,,0.15,Wunderground v.1.15,2013-01-10 05:08:00,
2013-01-09 23:13:00,26.1,22.8,30.47,East,97,0.0,0.0,87,0.00,,,0.15,Wunderground v.1.15,2013-01-10 05:13:00,
2013-01-09 23:18:00,26.3,22.7,30.47,ENE,77,0.0,1.0,86,0.00,,,0.15,Wunderground v.1.15,2013-01-10 05:18:00,
2013-01-09 23:23:00,26.4,22.8,30.47,ENE,66,0.0,0.0,86,0.00,,,0.15,Wunderground v.1.15,2013-01-10 05:23:00,
2013-01-09 23:28:00,26.4,22.8,30.47,ENE,66,0.0,0.0,86,0.00,,,0.15,Wunderground v.1.15,2013-01-10 05:28:00,
2013-01-09 23:33:00,26.4,22.8,30.48,ENE,66,0.0,0.0,86,0.00,,,0.15,Wunderground v.1.15,2013-01-10 05:33:00,
2013-01-09 23:38:00,26.5,22.9,30.48,ENE,66,0.0,0.0,86,0.00,,,0.15,Wunderground v.1.15,2013-01-10 05:38:00,
2013-01-09 23:43:00,26.5,22.9,30.48,ENE,66,0.0,0.0,86,0.00,,,0.15,Wunderground v.1.15,2013-01-10 05:43:00,
2013-01-09 23:48:00,26.5,22.9,30.48,ENE,66,0.0,0.0,86,0.00,,,0.15,Wunderground v.1.15,2013-01-10 05:48:00,
2013-01-09 23:53:00,26.4,22.8,30.49,ENE,66,0.0,0.0,86,0.00,,,0.15,Wunderground v.1.15,2013-01-10 05:53:00,
2013-01-09 23:58:00,26.3,22.7,30.49,ENE,66,0.0,0.0,86,0.00,,,0.15,Wunderground v.1.15,2013-01-10 05:58:00,